Latest Coastal Weather Observations for Cape Wessel

IDD60701

Issued at 1:41 am CST Wednesday 5 August 2015 (issued every 10 minutes, with the page automatically refreshed every 10 minutes)

About coastal observations | Map of coastal stations | Coastal observations for NT | Marine services | Other Formats
Station Details ID: 200786 Name: CAPE WESSEL Lat: -11.00 Lon: 136.76 Height: 18.0 m
Data from the previous 72 hours. | See also: Recent months for locations in Northern Territory
Date/Time
CST
Temp

°C
Wind Pressure Rain
since 9am
mm
Weather Cloud Vis
km
Sea
Height
m
Swell
Dir
 
Speed
knots
Gust
knots
hPa Trend Height
m
Period
s
Dir
05/01:30am 23.5 SSE 19 24 1013.9 - 0.0 - - - - - - -
05/01:00am 23.4 SSE 19 25 1014.2 - 0.0 - - - - - - -
05/12:30am 23.5 SE 20 25 1014.5 - 0.0 - - - - - - -
05/12:00am 23.5 SE 22 27 1014.5 - 0.0 - - - - - - -
 
Date/Time
CST
Temp

°C
Wind Pressure Rain
since 9am
mm
Weather Cloud Vis
km
Sea
Height
m
Swell
Dir
 
Speed
knots
Gust
knots
hPa Trend Height
m
Period
s
Dir
04/11:30pm 23.6 SSE 22 27 1014.6 - 0.0 - - - - - - -
04/11:00pm 23.6 SE 20 26 1014.7 - 0.0 - - - - - - -
04/10:30pm 23.6 SSE 20 26 1014.7 - 0.0 - - - - - - -
04/10:00pm 23.7 SSE 20 26 1014.7 - 0.0 - - - - - - -
04/09:30pm 23.8 SSE 20 27 1014.5 - 0.0 - - - - - - -
04/09:00pm 23.9 SE 22 27 1014.3 - 0.0 - - - - - - -
04/08:30pm 23.8 SSE 21 26 1014.1 - 0.0 - - - - - - -
04/08:00pm 24.0 SSE 21 27 1013.9 - 0.0 - - - - - - -
04/07:30pm 24.0 SSE 22 29 1013.7 - 0.0 - - - - - - -
04/07:00pm 24.1 SSE 23 28 1013.3 - 0.0 - - - - - - -
04/06:30pm 24.1 SSE 21 28 1013.0 - 0.0 - - - - - - -
04/06:00pm 24.6 SSE 20 27 1012.8 - 0.0 - - - - - - -
04/05:30pm 24.9 SSE 23 28 1012.9 - 0.0 - - - - - - -
04/05:00pm 25.7 SSE 22 27 1012.7 - 0.0 - - - - - - -
04/04:30pm 26.4 SSE 22 29 1012.4 - 0.0 - - - - - - -
04/04:00pm 26.1 SE 23 30 1012.3 - 0.0 - - - - - - -
04/03:30pm 27.5 SE 22 28 1012.3 - 0.0 - - - - - - -
04/03:00pm 27.4 SE 24 31 1012.3 - 0.0 - - - - - - -
04/02:30pm 27.9 SE 23 28 1012.7 - 0.0 - - - - - - -
04/02:00pm 28.5 SSE 23 28 1013.2 - 0.0 - - - - - - -
04/01:30pm 27.6 SE 23 29 1013.5 - 0.0 - - - - - - -
04/01:00pm 28.5 SSE 21 29 1014.0 - 0.0 - - - - - - -
04/12:30pm 28.4 SSE 17 22 1014.5 - 0.0 - - - - - - -
04/12:00pm 28.9 SE 17 21 1014.9 - 0.0 - - - - - - -
04/11:30am 29.1 SE 15 18 1015.5 - 0.0 - - - - - - -
04/11:00am 28.4 SE 15 19 1015.9 - 0.0 - - - - - - -
04/10:30am 28.2 SE 16 19 1016.2 - 0.0 - - - - - - -
04/10:00am 27.9 SE 15 19 1016.2 - 0.0 - - - - - - -
04/09:30am 27.4 SE 13 16 1016.1 - 0.0 - - - - - - -
04/09:00am 26.6 SE 14 17 1016.0 - 0.0 - - - - - - -
04/08:30am 26.0 SE 15 17 1015.9 - 0.0 - - - - - - -
04/08:00am 25.1 SE 15 18 1015.7 - 0.0 - - - - - - -
04/07:30am 24.4 SE 15 19 1015.4 - 0.0 - - - - - - -
04/07:00am 23.8 SE 15 19 1015.3 - 0.0 - - - - - - -
04/06:30am 23.5 SSE 13 17 1015.0 - 0.0 - - - - - - -
04/06:00am 23.3 SSE 13 17 1014.6 - 0.0 - - - - - - -
04/05:30am 23.4 SSE 12 16 1014.5 - 0.0 - - - - - - -
04/05:00am 23.5 SE 13 17 1014.3 - 0.0 - - - - - - -
04/04:30am 23.6 SE 13 17 1014.2 - 0.0 - - - - - - -
04/04:00am 23.6 SSE 12 16 1014.2 - 0.0 - - - - - - -
04/03:30am 23.5 SE 13 16 1014.2 - 0.0 - - - - - - -
04/03:00am 23.7 SSE 13 17 1013.9 - 0.0 - - - - - - -
04/02:30am 23.9 SE 15 18 1014.2 - 0.0 - - - - - - -
04/02:00am 23.9 SE 14 18 1014.4 - 0.0 - - - - - - -
04/01:30am 24.1 SE 16 19 1014.6 - 0.0 - - - - - - -
04/01:00am 24.3 SE 16 19 1015.0 - 0.0 - - - - - - -
04/12:30am 24.4 SE 17 20 1015.1 - 0.0 - - - - - - -
04/12:00am 24.5 SE 17 20 1015.0 - 0.0 - - - - - - -
 
Date/Time
CST
Temp

°C
Wind Pressure Rain
since 9am
mm
Weather Cloud Vis
km
Sea
Height
m
Swell
Dir
 
Speed
knots
Gust
knots
hPa Trend Height
m
Period
s
Dir
03/11:30pm 24.4 SE 16 20 1015.1 - 0.0 - - - - - - -
03/11:00pm 24.5 SE 17 21 1015.3 - 0.0 - - - - - - -
03/10:30pm 24.6 ESE 16 19 1015.4 - 0.0 - - - - - - -
03/10:00pm 24.5 ESE 15 18 1015.5 - 0.0 - - - - - - -
03/09:30pm 24.6 ESE 16 19 1015.6 - 0.0 - - - - - - -
03/09:00pm 24.7 SE 16 19 1015.3 - 0.0 - - - - - - -
03/08:30pm 24.7 SE 16 20 1015.3 - 0.0 - - - - - - -
03/08:00pm 24.8 SE 17 21 1015.1 - 0.0 - - - - - - -
03/07:30pm 24.8 SE 16 20 1014.8 - 0.0 - - - - - - -
03/07:00pm 25.1 ESE 17 20 1014.4 - 0.0 - - - - - - -
03/06:30pm 25.4 ESE 15 19 1014.0 - 0.0 - - - - - - -
03/06:00pm 25.7 ESE 14 17 1013.8 - 0.0 - - - - - - -
03/05:30pm 26.4 ESE 13 18 1013.7 - 0.0 - - - - - - -
03/05:00pm 27.0 ESE 14 16 1013.7 - 0.0 - - - - - - -
03/04:30pm 27.5 ESE 14 17 1013.6 - 0.0 - - - - - - -
03/04:00pm 28.1 SE 15 19 1013.6 - 0.0 - - - - - - -
03/03:30pm 28.4 ESE 16 20 1013.8 - 0.0 - - - - - - -
03/03:00pm 28.6 ESE 16 20 1013.6 - 0.0 - - - - - - -
03/02:30pm 29.3 ESE 16 20 1014.0 - 0.0 - - - - - - -
03/02:00pm 29.0 ESE 16 20 1014.5 - 0.0 - - - - - - -
03/01:30pm 29.4 ESE 16 19 1014.9 - 0.0 - - - - - - -
03/01:00pm 29.1 ESE 12 15 1015.3 - 0.0 - - - - - - -
03/12:30pm 29.0 ESE 14 18 1015.5 - 0.0 - - - - - - -
03/12:00pm 28.9 ESE 16 19 1015.8 - 0.0 - - - - - - -
03/11:30am 28.1 ESE 16 19 1016.3 - 0.0 - - - - - - -
03/11:00am 28.3 ESE 16 20 1016.5 - 0.0 - - - - - - -
03/10:30am 28.3 ESE 15 19 1016.7 - 0.0 - - - - - - -
03/10:00am 27.9 ESE 15 19 1016.8 - 0.0 - - - - - - -
03/09:30am 27.1 ESE 15 19 1016.7 - 0.0 - - - - - - -
03/09:00am 26.4 ESE 15 19 1016.3 - 0.2 - - - - - - -
03/08:30am 26.2 ESE 15 18 1016.2 - 0.2 - - - - - - -
03/08:00am 25.5 ESE 14 18 1015.9 - 0.2 - - - - - - -
03/07:30am 24.8 SE 17 21 1015.7 - 0.2 - - - - - - -
03/07:00am 24.1 SE 15 19 1015.4 - 0.2 - - - - - - -
03/06:30am 23.8 SE 14 17 1015.2 - 0.2 - - - - - - -
03/06:00am 23.9 SE 15 18 1014.8 - 0.2 - - - - - - -
03/05:30am 24.0 SE 15 17 1014.9 - 0.2 - - - - - - -
03/05:00am 24.0 SE 14 17 1015.0 - 0.2 - - - - - - -
03/04:30am 24.0 SE 14 16 1015.0 - 0.2 - - - - - - -
03/04:00am 23.9 SE 12 15 1014.8 - 0.2 - - - - - - -
03/03:30am 24.0 SE 13 15 1014.7 - 0.2 - - - - - - -
03/03:00am 23.8 SE 12 15 1014.7 - 0.2 - - - - - - -
03/02:30am 23.9 SE 13 15 1014.8 - 0.2 - - - - - - -
03/02:00am 24.0 SE 14 17 1015.0 - 0.2 - - - - - - -
03/01:30am 24.0 SE 14 17 1015.1 - 0.2 - - - - - - -
03/01:00am 24.2 SE 15 18 1015.4 - 0.2 - - - - - - -
03/12:30am 24.4 SE 14 18 1015.7 - 0.2 - - - - - - -
03/12:00am 24.5 SE 15 18 1015.8 - 0.2 - - - - - - -
 
Date/Time
CST
Temp

°C
Wind Pressure Rain
since 9am
mm
Weather Cloud Vis
km
Sea
Height
m
Swell
Dir
 
Speed
knots
Gust
knots
hPa Trend Height
m
Period
s
Dir
02/11:30pm 24.5 SE 16 19 1015.9 - 0.2 - - - - - - -
02/11:00pm 24.6 SE 15 18 1015.9 - 0.2 - - - - - - -
02/10:30pm 25.0 ESE 16 20 1016.0 - 0.2 - - - - - - -
02/10:00pm 25.0 ESE 15 19 1016.1 - 0.2 - - - - - - -
02/09:30pm 25.2 ESE 17 21 1016.0 - 0.2 - - - - - - -
02/09:00pm 25.2 ESE 17 23 1015.6 - 0.2 - - - - - - -
02/08:30pm 25.3 ESE 18 22 1015.5 - 0.2 - - - - - - -
02/08:00pm 25.3 ESE 17 22 1015.1 - 0.2 - - - - - - -
02/07:30pm 25.4 ESE 17 21 1014.9 - 0.2 - - - - - - -
02/07:00pm 25.2 ESE 17 22 1014.4 - 0.2 - - - - - - -
02/06:30pm 25.0 ESE 18 22 1014.2 - 0.2 - - - - - - -
02/06:00pm 25.3 ESE 17 21 1013.9 - 0.2 - - - - - - -
02/05:30pm 25.4 ESE 14 17 1013.7 - 0.2 - - - - - - -
02/05:00pm 26.5 ESE 17 25 1013.6 - 0.2 - - - - - - -
02/04:30pm 26.5 ESE 16 18 1013.5 - 0.2 - - - - - - -
02/04:00pm 27.0 SE 13 17 1013.5 - 0.2 - - - - - - -
02/03:30pm 28.4 ESE 14 16 1013.5 - 0.2 - - - - - - -
02/03:00pm 28.6 ESE 15 18 1013.5 - 0.2 - - - - - - -
02/02:30pm 28.4 ESE 15 18 1014.1 - 0.2 - - - - - - -
02/02:00pm 28.9 E 17 21 1014.5 - 0.2 - - - - - - -
02/01:30pm 28.9 ESE 16 19 1014.7 - 0.2 - - - - - - -
02/01:00pm 29.3 E 16 19 1015.0 - 0.2 - - - - - - -
02/12:30pm 29.4 E 15 19 1015.3 - 0.2 - - - - - - -
02/12:00pm 29.1 E 15 19 1015.6 - 0.2 - - - - - - -
02/11:30am 29.2 E 15 18 1015.9 - 0.2 - - - - - - -
02/11:00am 29.2 E 13 17 1016.2 - 0.2 - - - - - - -
02/10:30am 28.4 E 15 19 1016.5 - 0.0 - - - - - - -
02/10:00am 28.1 E 14 18 1016.5 - 0.0 - - - - - - -
02/09:30am 27.6 E 14 19 1016.6 - 0.0 - - - - - - -
02/09:00am 27.0 E 13 17 1016.5 - 0.2 - - - - - - -
02/08:30am 26.5 E 12 15 1016.5 - 0.2 - - - - - - -
02/08:00am 25.4 E 9 11 1016.3 - 0.2 - - - - - - -
02/07:30am 24.1 E 9 11 1015.9 - 0.2 - - - - - - -
02/07:00am 23.9 ESE 14 21 1015.6 - 0.2 - - - - - - -
02/06:30am 23.4 ESE 17 23 1015.3 - 0.2 - - - - - - -
02/06:00am 23.8 ESE 14 17 1015.0 - 0.2 - - - - - - -
02/05:30am 23.7 ESE 11 15 1014.7 - 0.2 - - - - - - -
02/05:00am 23.7 E 10 12 1014.5 - 0.2 - - - - - - -
02/04:30am 24.0 E 10 14 1014.4 - 0.2 - - - - - - -
02/04:00am 24.2 E 13 15 1014.3 - 0.2 - - - - - - -
02/03:30am 24.2 E 12 16 1014.3 - 0.2 - - - - - - -
02/03:00am 24.0 E 12 13 1014.1 - 0.2 - - - - - - -
02/02:30am 24.1 E 12 14 1014.2 - 0.2 - - - - - - -
02/02:00am 24.2 ESE 12 14 1014.2 - 0.2 - - - - - - -

Other Formats:

Comma delimited format used in spreadsheet applications
http://www.bom.gov.au/fwo/IDD60701/IDD60701.94147.axf

JavaScript Object Notation format (JSON) in row-major order
http://www.bom.gov.au/fwo/IDD60701/IDD60701.94147.json